Time;durP1;ratioP1;P1;durP2;ratioP2;P2;SDS_P1;SDS_P2;PMS_P1;PMS_P2;Temp;Humidity;BMP_temperature;BMP_pressure;BME280_temperature;BME280_humidity;BME280_pressure;Samples;Min_cycle;Max_cycle;Signal;HPM_P1;HPM_P2
2022/04/23 00:00:50;;;;;;;15.63;11.25;;;12.60;99.90;;;;;;5028639;28;20184;-82
2022/04/23 00:03:16;;;;;;;20.75;11.05;;;12.70;99.90;;;;;;5028494;28;20168;-83
2022/04/23 00:05:41;;;;;;;20.77;11.38;;;12.60;99.90;;;;;;5028375;28;20275;-82
2022/04/23 00:08:08;;;;;;;13.55;12.07;;;12.70;99.90;;;;;;5028163;28;20267;-82
2022/04/23 00:10:34;;;;;;;17.23;12.65;;;12.70;99.90;;;;;;5013209;28;20172;-81
2022/04/23 00:13:00;;;;;;;18.02;11.85;;;12.80;99.90;;;;;;5027992;28;20301;-81
2022/04/23 00:15:27;;;;;;;14.48;12.45;;;12.80;99.90;;;;;;5028291;28;20673;-81
2022/04/23 00:17:52;;;;;;;15.00;11.85;;;12.90;99.90;;;;;;5013094;28;20527;-82
2022/04/23 00:20:18;;;;;;;15.88;11.63;;;12.80;99.90;;;;;;5012407;28;20220;-83
2022/04/23 00:22:44;;;;;;;17.13;11.95;;;12.80;99.90;;;;;;5028497;28;20168;-82
2022/04/23 00:25:10;;;;;;;11.95;10.73;;;12.90;99.90;;;;;;5012676;28;20292;-81
2022/04/23 00:27:35;;;;;;;13.82;11.70;;;12.90;99.90;;;;;;5012745;28;20160;-81
2022/04/23 00:30:02;;;;;;;15.27;11.73;;;13.00;99.90;;;;;;5012924;28;20524;-81
2022/04/23 00:32:29;;;;;;;13.48;10.85;;;12.90;99.90;;;;;;5027791;28;20180;-84
2022/04/23 00:34:55;;;;;;;15.60;11.65;;;12.70;99.90;;;;;;5012914;28;20184;-81
2022/04/23 00:37:20;;;;;;;21.85;11.85;;;12.70;99.90;;;;;;5013211;28;20500;-83
2022/04/23 00:39:46;;;;;;;16.40;11.80;;;12.80;99.90;;;;;;5012540;28;20213;-82
2022/04/23 00:42:12;;;;;;;12.45;10.75;;;12.70;99.90;;;;;;5012943;28;20617;-80
2022/04/23 00:44:38;;;;;;;14.98;11.98;;;12.60;99.90;;;;;;5012659;28;20241;-81
2022/04/23 00:47:04;;;;;;;14.32;12.25;;;12.60;99.90;;;;;;5013208;28;20165;-83
2022/04/23 00:49:30;;;;;;;15.20;11.13;;;12.50;99.90;;;;;;5012856;28;20184;-82
2022/04/23 00:51:56;;;;;;;14.05;11.38;;;12.50;99.90;;;;;;5012535;28;20736;-82
2022/04/23 00:54:22;;;;;;;14.95;11.40;;;12.40;99.90;;;;;;5027469;28;20197;-84
2022/04/23 00:56:48;;;;;;;18.55;12.20;;;12.30;99.90;;;;;;5012564;28;20644;-81
2022/04/23 00:59:14;;;;;;;16.05;12.38;;;12.40;99.90;;;;;;5012593;28;20200;-80
2022/04/23 01:01:41;;;;;;;14.23;10.90;;;12.40;99.90;;;;;;5012736;28;20251;-80
2022/04/23 01:04:08;;;;;;;15.90;12.20;;;12.40;99.90;;;;;;5012552;28;20315;-83
2022/04/23 01:06:35;;;;;;;23.05;11.25;;;12.50;99.90;;;;;;5012762;28;20197;-82
2022/04/23 01:09:06;;;;;;;16.80;12.18;;;12.30;99.90;;;;;;5012689;28;20173;-83
2022/04/23 01:11:33;;;;;;;13.45;11.65;;;12.30;99.90;;;;;;5027935;28;20260;-83
2022/04/23 01:14:00;;;;;;;17.05;12.02;;;12.40;99.90;;;;;;5012501;28;20209;-81
2022/04/23 01:16:26;;;;;;;13.00;11.40;;;12.40;99.90;;;;;;5012496;28;20168;-82
2022/04/23 01:18:52;;;;;;;17.13;11.98;;;12.60;99.90;;;;;;5012271;28;20723;-82
2022/04/23 01:21:17;;;;;;;13.02;11.77;;;12.60;99.90;;;;;;5012441;28;20180;-81
2022/04/23 01:23:46;;;;;;;12.43;11.10;;;12.60;99.90;;;;;;5012380;28;20184;-83
2022/04/23 01:26:14;;;;;;;15.75;11.77;;;12.70;99.90;;;;;;5016335;28;20211;-84
2022/04/23 01:28:40;;;;;;;15.88;11.82;;;12.60;99.90;;;;;;5016297;28;20191;-82
2022/04/23 01:31:07;;;;;;;13.15;11.25;;;12.50;99.90;;;;;;5016079;28;20645;-81
2022/04/23 01:33:33;;;;;;;19.85;11.50;;;12.50;99.90;;;;;;5016384;28;20187;-83
2022/04/23 01:35:59;;;;;;;23.98;12.60;;;12.40;99.90;;;;;;5016734;28;20180;-83
2022/04/23 01:38:25;;;;;;;12.82;11.43;;;12.40;99.90;;;;;;5015980;28;20172;-83
2022/04/23 01:40:50;;;;;;;12.55;11.27;;;12.50;99.90;;;;;;5031388;28;20251;-81
2022/04/23 01:43:16;;;;;;;13.88;11.95;;;12.70;99.90;;;;;;5015965;28;20169;-81
2022/04/23 01:45:41;;;;;;;18.02;12.43;;;12.50;99.90;;;;;;5015565;28;20200;-84
2022/04/23 01:48:07;;;;;;;14.85;10.73;;;12.50;99.90;;;;;;5030930;28;20223;-81
2022/04/23 01:50:34;;;;;;;11.95;10.75;;;12.40;99.90;;;;;;5015659;28;20161;-82
2022/04/23 01:53:00;;;;;;;14.43;10.95;;;12.40;99.90;;;;;;5015788;28;20164;-81
2022/04/23 01:55:26;;;;;;;20.10;12.10;;;12.30;99.90;;;;;;5030633;28;20187;-82
2022/04/23 01:57:51;;;;;;;13.35;11.95;;;12.40;99.90;;;;;;5015625;28;20164;-82
2022/04/23 02:00:17;;;;;;;15.32;12.70;;;12.40;99.90;;;;;;5030792;28;20213;-83
2022/04/23 02:02:44;;;;;;;21.45;12.75;;;12.30;99.90;;;;;;5016169;28;20601;-81
2022/04/23 02:05:10;;;;;;;12.50;11.20;;;12.20;99.90;;;;;;5015705;28;20189;-79
2022/04/23 02:07:40;;;;;;;13.32;11.95;;;12.20;99.90;;;;;;5015975;28;20160;-82
2022/04/23 02:10:08;;;;;;;14.35;12.05;;;12.10;99.90;;;;;;5031738;28;20169;-82
2022/04/23 02:12:34;;;;;;;15.57;13.40;;;12.00;99.90;;;;;;5016050;28;20168;-81
2022/04/23 02:15:00;;;;;;;19.63;12.82;;;12.10;99.90;;;;;;5018212;28;20640;-80
2022/04/23 02:17:34;;;;;;;20.27;13.05;;;12.20;99.90;;;;;;5035030;28;20169;-83
2022/04/23 02:20:07;;;;;;;14.63;12.30;;;12.30;99.90;;;;;;5034329;28;20696;-83
2022/04/23 02:22:32;;;;;;;14.13;12.32;;;12.30;99.90;;;;;;5034847;28;20201;-83
2022/04/23 02:24:59;;;;;;;18.75;13.27;;;12.30;99.90;;;;;;5031021;28;20550;-82
2022/04/23 02:27:25;;;;;;;16.40;13.38;;;12.20;99.90;;;;;;5020170;28;20168;-81
2022/04/23 02:29:51;;;;;;;16.38;13.07;;;12.30;99.90;;;;;;5016310;28;20196;-80
2022/04/23 02:32:17;;;;;;;19.35;13.27;;;12.30;99.90;;;;;;5015108;28;20168;-81
2022/04/23 02:34:43;;;;;;;20.67;12.77;;;12.30;99.90;;;;;;5030497;28;20691;-81
2022/04/23 02:37:09;;;;;;;22.83;14.35;;;12.30;99.90;;;;;;5017375;28;20204;-80
2022/04/23 02:39:35;;;;;;;15.95;13.73;;;12.40;99.90;;;;;;5018653;28;20231;-82
2022/04/23 02:42:01;;;;;;;17.60;13.27;;;12.40;99.90;;;;;;5034280;28;20207;-81
2022/04/23 02:44:28;;;;;;;21.95;14.10;;;12.30;99.90;;;;;;5019688;28;20192;-81
2022/04/23 02:46:54;;;;;;;18.73;13.35;;;12.30;99.90;;;;;;5019020;28;20557;-83
2022/04/23 02:49:21;;;;;;;19.15;13.82;;;12.20;99.90;;;;;;5018276;28;20184;-79
2022/04/23 02:51:47;;;;;;;17.08;14.43;;;12.20;99.90;;;;;;5034854;28;20184;-81
2022/04/23 02:54:13;;;;;;;17.80;14.30;;;12.10;99.90;;;;;;5019496;28;20181;-79
2022/04/23 02:56:39;;;;;;;16.48;14.60;;;12.20;99.90;;;;;;5019980;28;20235;-82
2022/04/23 02:59:06;;;;;;;21.02;14.95;;;12.10;99.90;;;;;;5019966;28;20209;-82
2022/04/23 03:01:34;;;;;;;21.00;15.52;;;12.10;99.90;;;;;;5020028;28;20252;-82
2022/04/23 03:04:00;;;;;;;20.60;16.27;;;12.10;99.90;;;;;;5019860;28;20196;-81
2022/04/23 03:06:30;;;;;;;25.40;15.82;;;12.10;99.90;;;;;;5034329;28;20638;-79
2022/04/23 03:08:56;;;;;;;18.42;14.35;;;12.20;99.90;;;;;;5018611;28;20165;-80
2022/04/23 03:11:23;;;;;;;29.20;15.25;;;12.10;99.90;;;;;;5041088;28;20176;-83
2022/04/23 03:13:48;;;;;;;16.83;14.63;;;12.10;99.90;;;;;;5031343;28;20236;-79
2022/04/23 03:16:14;;;;;;;21.10;14.85;;;12.00;99.90;;;;;;5044081;28;20200;-81
2022/04/23 03:18:39;;;;;;;23.33;15.27;;;12.00;99.90;;;;;;5035324;28;20153;-81
2022/04/23 03:21:05;;;;;;;18.02;15.60;;;12.00;99.90;;;;;;5051686;28;20177;-81
2022/04/23 03:23:31;;;;;;;20.05;15.52;;;12.10;99.90;;;;;;5035831;28;20168;-80
2022/04/23 03:25:57;;;;;;;22.42;16.30;;;12.00;99.90;;;;;;5035462;28;20172;-81
2022/04/23 03:28:23;;;;;;;17.60;15.70;;;12.00;99.90;;;;;;5035538;28;20164;-79
2022/04/23 03:30:49;;;;;;;20.88;15.50;;;12.10;99.90;;;;;;5034608;28;20164;-79
2022/04/23 03:33:14;;;;;;;21.35;15.90;;;12.20;99.90;;;;;;5035892;28;20180;-81
2022/04/23 03:35:40;;;;;;;20.65;16.15;;;12.30;99.90;;;;;;5032356;28;20193;-79
2022/04/23 03:38:06;;;;;;;26.05;15.35;;;12.00;99.90;;;;;;5033721;28;20255;-82
2022/04/23 03:40:31;;;;;;;21.27;16.00;;;12.10;99.90;;;;;;5033761;28;20212;-80
2022/04/23 03:42:57;;;;;;;22.48;15.93;;;12.00;99.90;;;;;;5034996;28;20148;-80
2022/04/23 03:45:24;;;;;;;19.77;15.82;;;11.90;99.90;;;;;;5035710;28;20195;-82
2022/04/23 03:47:50;;;;;;;25.27;16.52;;;11.80;99.90;;;;;;5019246;28;20172;-81
2022/04/23 03:50:17;;;;;;;30.80;16.73;;;11.70;99.90;;;;;;5015001;28;20176;-81
2022/04/23 03:52:43;;;;;;;18.10;15.15;;;11.90;99.90;;;;;;5029764;28;20168;-81
2022/04/23 03:55:13;;;;;;;22.65;16.10;;;11.70;99.90;;;;;;5030068;28;20192;-80
2022/04/23 03:57:47;;;;;;;23.17;15.98;;;11.70;99.90;;;;;;5017468;28;20179;-82
2022/04/23 04:00:14;;;;;;;20.38;15.75;;;11.60;99.90;;;;;;5014229;28;20299;-81
2022/04/23 04:02:40;;;;;;;18.23;14.65;;;11.60;99.90;;;;;;5014823;28;20328;-80
2022/04/23 04:05:06;;;;;;;18.60;16.40;;;11.80;99.90;;;;;;5014341;28;20202;-82
2022/04/23 04:07:32;;;;;;;22.60;17.98;;;11.70;99.90;;;;;;5013759;28;20531;-79
2022/04/23 04:10:00;;;;;;;22.67;17.83;;;11.60;99.90;;;;;;5013691;28;20215;-80
2022/04/23 04:12:26;;;;;;;21.63;16.80;;;11.60;99.90;;;;;;5013567;28;20180;-81
2022/04/23 04:14:52;;;;;;;20.75;16.50;;;11.70;99.90;;;;;;5013871;28;20192;-81
2022/04/23 04:17:17;;;;;;;20.08;15.50;;;11.60;99.90;;;;;;5013823;28;20529;-78
2022/04/23 04:19:43;;;;;;;25.98;16.70;;;11.70;99.90;;;;;;5013855;28;20283;-81
2022/04/23 04:22:09;;;;;;;18.13;15.50;;;11.80;99.90;;;;;;5013708;28;20553;-80
2022/04/23 04:24:34;;;;;;;21.17;16.27;;;11.80;99.90;;;;;;5028950;28;20283;-79
2022/04/23 04:27:00;;;;;;;22.05;16.40;;;11.70;99.90;;;;;;5013800;28;20172;-81
2022/04/23 04:29:26;;;;;;;21.83;16.45;;;11.70;99.90;;;;;;5013469;28;20284;-80
2022/04/23 04:31:52;;;;;;;18.90;15.80;;;11.70;99.90;;;;;;5014158;28;20176;-82
2022/04/23 04:34:23;;;;;;;22.48;16.33;;;11.70;99.90;;;;;;5028623;28;20187;-80
2022/04/23 04:36:51;;;;;;;19.45;15.80;;;11.60;99.90;;;;;;5013341;28;20184;-80
2022/04/23 04:39:18;;;;;;;24.67;16.90;;;11.60;99.90;;;;;;5013274;28;20203;-80
2022/04/23 04:41:44;;;;;;;21.05;15.45;;;11.50;99.90;;;;;;5028161;28;20168;-81
2022/04/23 04:44:10;;;;;;;27.30;15.63;;;11.60;99.90;;;;;;5013032;28;20209;-81
2022/04/23 04:46:38;;;;;;;20.17;15.68;;;11.60;99.90;;;;;;5013391;28;20187;-82
2022/04/23 04:49:04;;;;;;;19.42;16.50;;;11.60;99.90;;;;;;5028485;28;20512;-79
2022/04/23 04:51:31;;;;;;;19.77;15.77;;;11.70;99.90;;;;;;5013004;28;20176;-80
2022/04/23 04:53:57;;;;;;;21.40;16.58;;;11.70;99.90;;;;;;5012992;28;20188;-81
2022/04/23 04:56:23;;;;;;;19.10;15.90;;;11.70;99.90;;;;;;5013088;28;20172;-80
2022/04/23 04:58:49;;;;;;;22.45;15.23;;;11.50;99.90;;;;;;5014807;28;20164;-80
2022/04/23 05:01:16;;;;;;;19.83;17.10;;;11.50;99.90;;;;;;5017411;28;20168;-79
2022/04/23 05:03:43;;;;;;;26.67;17.05;;;11.50;99.90;;;;;;5016934;28;20212;-80
2022/04/23 05:06:09;;;;;;;21.85;16.35;;;11.50;99.90;;;;;;5017228;28;20168;-79
2022/04/23 05:08:36;;;;;;;23.58;16.92;;;11.50;99.90;;;;;;5017074;28;20169;-80
2022/04/23 05:11:02;;;;;;;22.92;15.98;;;11.50;99.90;;;;;;5017218;28;20646;-80
2022/04/23 05:13:27;;;;;;;23.85;16.20;;;11.50;99.90;;;;;;5016543;28;20572;-82
2022/04/23 05:15:53;;;;;;;22.58;15.73;;;11.60;99.90;;;;;;5016965;28;20269;-82
2022/04/23 05:18:18;;;;;;;22.30;16.17;;;11.70;99.90;;;;;;5016745;28;20513;-82
2022/04/23 05:20:44;;;;;;;21.88;15.60;;;11.80;99.90;;;;;;5031898;28;20215;-82
2022/04/23 05:23:10;;;;;;;22.20;16.45;;;11.90;99.90;;;;;;5016735;28;20169;-82
2022/04/23 05:25:35;;;;;;;22.60;15.88;;;11.90;99.90;;;;;;5016416;28;20242;-79
2022/04/23 05:28:01;;;;;;;21.98;15.32;;;11.90;99.90;;;;;;5016598;28;20636;-82
2022/04/23 05:30:26;;;;;;;20.98;15.82;;;11.90;99.90;;;;;;5016116;28;20188;-82
2022/04/23 05:32:52;;;;;;;21.20;16.00;;;11.90;99.90;;;;;;5016540;28;20169;-81
2022/04/23 05:35:18;;;;;;;21.08;15.43;;;11.90;99.90;;;;;;5039113;23;20598;-77
2022/04/23 05:37:43;;;;;;;19.80;15.80;;;11.90;99.90;;;;;;5035391;28;20164;-77
2022/04/23 05:40:09;;;;;;;20.25;16.65;;;11.90;99.90;;;;;;5035630;28;20722;-82
2022/04/23 05:42:35;;;;;;;30.33;16.10;;;12.10;99.90;;;;;;5035240;28;20172;-79
2022/04/23 05:45:00;;;;;;;22.50;15.68;;;12.00;99.90;;;;;;5035151;28;20287;-77
2022/04/23 05:47:26;;;;;;;18.95;15.45;;;11.90;99.90;;;;;;5035487;28;20164;-79
2022/04/23 05:49:51;;;;;;;21.63;15.85;;;11.90;99.90;;;;;;5035179;28;20268;-77
2022/04/23 05:52:17;;;;;;;17.98;15.30;;;11.90;99.90;;;;;;5035044;28;20167;-78
2022/04/23 05:54:43;;;;;;;21.42;15.93;;;11.90;99.90;;;;;;5034837;28;20184;-77
2022/04/23 05:57:08;;;;;;;22.98;16.80;;;11.80;99.90;;;;;;5035355;28;20625;-81
2022/04/23 05:59:34;;;;;;;20.23;15.70;;;11.80;99.90;;;;;;5035283;28;20218;-77
2022/04/23 06:02:00;;;;;;;20.15;15.82;;;11.80;99.90;;;;;;5035201;28;20298;-78
2022/04/23 06:04:26;;;;;;;21.30;15.80;;;11.90;99.90;;;;;;5035782;28;20207;-86
2022/04/23 06:06:52;;;;;;;21.60;16.92;;;11.90;99.90;;;;;;5034997;28;20188;-87
2022/04/23 06:09:18;;;;;;;20.58;15.93;;;12.00;99.90;;;;;;5035719;28;20222;-82
2022/04/23 06:11:43;;;;;;;23.60;16.27;;;11.90;99.90;;;;;;5034798;28;20168;-87
2022/04/23 06:14:09;;;;;;;20.13;16.25;;;12.00;99.90;;;;;;5034846;28;20196;-82
2022/04/23 06:16:36;;;;;;;21.20;16.98;;;12.00;99.90;;;;;;5035401;28;20182;-86
2022/04/23 06:19:02;;;;;;;28.05;17.70;;;12.00;99.90;;;;;;5035150;28;20200;-86
2022/04/23 06:21:27;;;;;;;21.95;17.70;;;12.10;99.90;;;;;;5034522;28;20171;-81
2022/04/23 06:23:53;;;;;;;22.83;17.17;;;12.10;99.90;;;;;;5034894;28;20631;-86
2022/04/23 06:26:18;;;;;;;19.48;15.95;;;12.30;99.90;;;;;;5034535;28;20217;-83
2022/04/23 06:28:44;;;;;;;20.30;16.77;;;12.40;99.90;;;;;;5035065;28;20168;-82
2022/04/23 06:31:10;;;;;;;26.88;16.30;;;12.40;99.90;;;;;;5034797;28;20322;-81
2022/04/23 06:33:36;;;;;;;21.80;16.20;;;12.30;99.90;;;;;;5033405;28;20183;-79
2022/04/23 06:36:01;;;;;;;27.17;16.17;;;12.30;99.90;;;;;;5035085;28;20187;-81
2022/04/23 06:38:27;;;;;;;18.63;15.70;;;12.30;99.90;;;;;;5035041;28;20164;-83
2022/04/23 06:40:52;;;;;;;21.38;16.17;;;12.40;99.90;;;;;;5034924;28;20249;-85
2022/04/23 06:43:18;;;;;;;20.98;15.73;;;12.40;99.90;;;;;;5034166;28;20262;-87
2022/04/23 06:45:44;;;;;;;31.15;17.55;;;12.50;99.90;;;;;;5034848;28;20196;-86
2022/04/23 06:48:09;;;;;;;25.15;15.25;;;12.40;99.90;;;;;;5035240;28;20167;-88
2022/04/23 06:50:36;;;;;;;25.90;16.42;;;12.50;99.90;;;;;;5034396;28;20180;-88
2022/04/23 06:53:03;;;;;;;18.27;15.10;;;12.50;99.90;;;;;;5034564;28;20570;-81
2022/04/23 06:55:29;;;;;;;23.35;15.50;;;12.50;99.90;;;;;;5034481;28;20208;-83
2022/04/23 06:57:55;;;;;;;22.65;15.70;;;12.40;99.90;;;;;;5035365;28;20254;-82
2022/04/23 07:00:22;;;;;;;21.50;16.13;;;12.40;99.90;;;;;;5034219;28;20299;-77
2022/04/23 07:02:50;;;;;;;22.58;15.35;;;12.50;99.90;;;;;;5034231;28;20158;-80
2022/04/23 07:05:17;;;;;;;23.73;16.73;;;12.50;99.90;;;;;;5034265;28;20730;-84
2022/04/23 07:08:01;;;;;;;22.13;16.15;;;12.60;99.90;;;;;;5033741;28;20222;-86
2022/04/23 07:10:28;;;;;;;17.33;15.02;;;12.80;99.90;;;;;;5033953;28;20255;-81
2022/04/23 07:12:54;;;;;;;17.42;13.52;;;12.90;99.90;;;;;;5033820;28;20164;-75
2022/04/23 07:15:21;;;;;;;26.90;15.25;;;12.70;99.90;;;;;;5033699;28;20210;-76
2022/04/23 07:17:48;;;;;;;30.02;16.33;;;12.80;99.90;;;;;;5033624;28;20186;-75
2022/04/23 07:20:14;;;;;;;17.38;15.50;;;12.80;99.90;;;;;;5033419;28;20208;-81
2022/04/23 07:22:40;;;;;;;21.85;15.23;;;12.80;99.90;;;;;;5033907;28;20218;-81
2022/04/23 07:25:10;;;;;;;20.40;16.13;;;12.80;99.90;;;;;;5033649;28;20191;-82
2022/04/23 07:27:36;;;;;;;27.30;16.65;;;12.80;99.90;;;;;;5033243;28;20710;-75
2022/04/23 07:30:01;;;;;;;22.58;15.45;;;12.90;99.90;;;;;;5033846;28;20691;-82
2022/04/23 07:32:27;;;;;;;22.27;15.00;;;13.10;99.90;;;;;;5032232;28;20264;-78
2022/04/23 07:37:37;;;;;;;16.63;13.63;;;13.10;99.90;;;;;;5033182;28;20248;-76
2022/04/23 07:40:10;;;;;;;20.40;15.48;;;13.10;99.90;;;;;;5033123;28;20286;-76
2022/04/23 07:42:36;;;;;;;17.75;15.57;;;13.20;99.90;;;;;;5033636;28;20180;-76
2022/04/23 07:45:01;;;;;;;18.83;15.35;;;13.40;99.90;;;;;;5033839;28;20234;-76
2022/04/23 07:47:28;;;;;;;15.88;13.70;;;13.50;99.90;;;;;;5050935;28;20163;-77
2022/04/23 07:49:53;;;;;;;17.88;15.07;;;13.50;99.90;;;;;;5034894;28;20553;-83
2022/04/23 07:52:19;;;;;;;17.02;13.93;;;13.60;99.90;;;;;;5036266;28;20168;-83
2022/04/23 07:54:45;;;;;;;18.15;14.65;;;13.80;99.90;;;;;;5037035;28;20200;-81
2022/04/23 07:57:12;;;;;;;26.63;14.20;;;13.80;99.90;;;;;;5034435;28;20247;-81
2022/04/23 07:59:42;;;;;;;19.27;14.23;;;14.00;99.90;;;;;;5033158;28;20848;-83
2022/04/23 08:02:08;;;;;;;21.05;14.93;;;14.00;99.90;;;;;;5032094;28;20564;-81
2022/04/23 08:04:34;;;;;;;23.23;14.35;;;13.90;99.90;;;;;;5031922;28;20194;-80
2022/04/23 08:07:00;;;;;;;16.88;15.18;;;13.90;99.90;;;;;;5031973;28;20523;-85
2022/04/23 08:09:26;;;;;;;24.35;13.50;;;14.00;99.90;;;;;;5032229;28;20171;-84
2022/04/23 08:11:51;;;;;;;17.42;14.80;;;13.90;99.90;;;;;;5032336;28;20278;-82
2022/04/23 08:14:17;;;;;;;23.27;14.88;;;14.00;99.90;;;;;;5031536;28;20184;-84
2022/04/23 08:16:45;;;;;;;23.30;15.43;;;14.20;99.90;;;;;;5029563;28;20202;-83
2022/04/23 08:19:10;;;;;;;17.65;14.00;;;14.20;99.90;;;;;;5043651;28;20266;-84
2022/04/23 08:21:36;;;;;;;23.25;14.75;;;14.20;99.90;;;;;;5048914;28;20203;-82
2022/04/23 08:24:02;;;;;;;18.17;14.65;;;14.20;99.90;;;;;;5047326;28;20241;-82
2022/04/23 08:26:27;;;;;;;20.15;14.35;;;14.30;99.90;;;;;;5042271;28;20175;-83
2022/04/23 08:31:37;;;;;;;19.30;14.80;;;14.40;99.90;;;;;;5032550;28;20695;-82
2022/04/23 08:34:03;;;;;;;18.83;13.23;;;14.60;99.90;;;;;;5047804;28;20274;-83
2022/04/23 08:36:31;;;;;;;16.55;13.20;;;14.70;99.90;;;;;;5031122;28;20198;-84
2022/04/23 08:38:58;;;;;;;16.55;13.57;;;14.80;99.90;;;;;;5047023;28;20632;-83
2022/04/23 08:41:31;;;;;;;22.52;13.95;;;15.10;99.90;;;;;;5031802;28;20175;-83
2022/04/23 08:44:05;;;;;;;19.95;14.02;;;15.40;99.90;;;;;;5047185;28;20575;-83
2022/04/23 08:46:35;;;;;;;16.42;14.57;;;15.50;99.90;;;;;;5046411;28;20711;-83
2022/04/23 08:49:16;;;;;;;22.50;13.88;;;15.50;99.90;;;;;;5048243;28;20176;-85
2022/04/23 08:51:45;;;;;;;20.48;14.55;;;15.70;99.90;;;;;;5049631;28;20167;-83
2022/04/23 08:54:12;;;;;;;21.70;13.43;;;15.70;99.90;;;;;;5047046;28;20252;-82
2022/04/23 08:56:41;;;;;;;18.00;14.30;;;15.70;99.90;;;;;;5046508;28;20183;-81
2022/04/23 08:59:07;;;;;;;16.77;13.52;;;15.80;99.90;;;;;;5031242;28;20208;-81
2022/04/23 09:01:35;;;;;;;15.40;13.85;;;15.90;99.90;;;;;;5047467;28;20167;-81
2022/04/23 09:04:02;;;;;;;17.52;14.75;;;16.00;99.90;;;;;;5046732;28;20196;-82
2022/04/23 09:06:35;;;;;;;15.40;13.68;;;16.00;99.90;;;;;;5046026;28;20222;-80
2022/04/23 09:09:13;;;;;;;24.05;13.77;;;15.80;99.90;;;;;;5029684;28;20498;-85
2022/04/23 09:11:40;;;;;;;17.73;14.93;;;15.80;99.90;;;;;;5030402;28;20180;-82
2022/04/23 09:14:07;;;;;;;18.90;14.55;;;15.90;99.90;;;;;;5030059;28;20659;-82
2022/04/23 09:25:11;;;;;;;18.70;13.57;;;16.10;99.90;;;;;;5031364;28;20215;-81
2022/04/23 09:27:37;;;;;;;19.20;13.13;;;16.10;99.90;;;;;;5031012;28;20172;-81
2022/04/23 09:30:08;;;;;;;18.67;14.52;;;16.10;99.90;;;;;;5016078;28;20640;-80
2022/04/23 09:32:34;;;;;;;17.02;14.27;;;16.10;99.90;;;;;;5010467;28;20176;-83
2022/04/23 09:35:03;;;;;;;17.90;15.10;;;16.40;99.90;;;;;;5010825;28;20208;-84
2022/04/23 09:38:11;;;;;;;17.75;14.88;;;16.60;99.90;;;;;;5012209;28;20176;-83
2022/04/23 09:40:19;;;;;;;16.13;13.70;;;16.60;99.90;;;;;;5012353;28;20216;-82
2022/04/23 09:43:05;;;;;;;17.65;14.52;;;16.70;99.90;;;;;;5013653;28;20842;-85
2022/04/23 09:45:32;;;;;;;18.25;15.05;;;16.70;99.90;;;;;;5013321;28;20192;-83
2022/04/23 09:48:10;;;;;;;15.13;13.52;;;16.80;99.90;;;;;;5014524;28;20267;-84
2022/04/23 09:50:37;;;;;;;15.13;13.52;;;16.60;99.90;;;;;;5015370;28;20184;-81
2022/04/23 09:53:16;;;;;;;15.95;13.90;;;16.70;99.90;;;;;;5014518;28;20168;-84
2022/04/23 09:55:42;;;;;;;17.05;13.95;;;16.70;99.90;;;;;;5014587;28;20219;-83
2022/04/23 09:58:09;;;;;;;21.75;14.35;;;16.90;99.90;;;;;;5014438;28;20156;-82
2022/04/23 10:00:37;;;;;;;19.00;15.32;;;16.90;99.90;;;;;;5015532;28;20665;-83
2022/04/23 10:03:08;;;;;;;15.30;13.70;;;17.00;99.90;;;;;;5014766;28;20513;-85
2022/04/23 10:05:46;;;;;;;21.50;13.90;;;17.20;99.90;;;;;;5015079;28;20185;-84
2022/04/23 10:08:14;;;;;;;16.65;13.27;;;17.20;99.90;;;;;;5016077;28;20164;-84
2022/04/23 10:10:53;;;;;;;23.08;14.13;;;17.30;99.90;;;;;;5031354;28;20177;-85
2022/04/23 10:13:20;;;;;;;16.92;15.20;;;17.30;99.90;;;;;;5015608;28;20199;-83
2022/04/23 10:15:47;;;;;;;21.25;14.15;;;17.10;99.90;;;;;;5015316;28;20539;-84
2022/04/23 10:18:14;;;;;;;15.13;13.55;;;17.10;99.90;;;;;;5031703;28;20213;-83
2022/04/23 10:20:40;;;;;;;19.30;14.70;;;17.10;99.90;;;;;;5014923;28;20208;-83
2022/04/23 10:23:31;;;;;;;16.65;14.50;;;17.00;99.90;;;;;;5014487;28;20176;-83
2022/04/23 10:26:19;;;;;;;16.85;13.55;;;17.00;99.90;;;;;;5014352;28;20207;-82
2022/04/23 10:28:45;;;;;;;15.90;14.05;;;17.00;99.90;;;;;;5014432;28;20227;-83
2022/04/23 10:31:15;;;;;;;24.10;14.27;;;17.20;99.90;;;;;;5014426;28;20643;-82
2022/04/23 10:33:54;;;;;;;15.20;13.57;;;17.20;99.90;;;;;;5014522;28;20192;-83
2022/04/23 10:36:22;;;;;;;22.77;13.30;;;17.50;99.90;;;;;;5014016;28;20214;-83
2022/04/23 10:38:52;;;;;;;17.73;13.48;;;17.60;99.90;;;;;;5015399;28;20172;-82
2022/04/23 10:41:24;;;;;;;15.95;14.23;;;17.30;99.90;;;;;;5014254;28;20208;-83
2022/04/23 10:44:00;;;;;;;15.68;12.00;;;17.50;99.90;;;;;;5015725;28;20276;-81
2022/04/23 10:46:38;;;;;;;19.45;12.38;;;17.90;99.90;;;;;;5015091;28;20178;-82
2022/04/23 10:49:18;;;;;;;14.50;11.50;;;18.20;99.90;;;;;;5014795;28;20647;-83
2022/04/23 10:51:49;;;;;;;15.30;12.73;;;18.70;99.90;;;;;;5015198;28;20175;-83
2022/04/23 10:54:18;;;;;;;18.70;13.98;;;18.60;99.90;;;;;;5014202;28;20188;-82
2022/04/23 10:56:48;;;;;;;17.15;12.32;;;18.90;99.90;;;;;;5013297;28;20171;-82
2022/04/23 10:59:47;;;;;;;15.25;12.15;;;18.90;99.90;;;;;;5014024;28;20193;-82
2022/04/23 11:02:23;;;;;;;18.90;13.25;;;18.40;99.90;;;;;;4992150;28;20188;-79
2022/04/23 11:13:53;;;;;;;15.18;12.55;;;18.30;99.90;;;;;;5014355;28;20243;-85
2022/04/23 11:16:20;;;;;;;12.82;11.45;;;18.50;99.90;;;;;;5028910;28;20164;-83
2022/04/23 11:18:50;;;;;;;18.63;12.02;;;18.50;99.90;;;;;;5012312;28;20172;-83
2022/04/23 11:21:26;;;;;;;14.45;11.40;;;18.60;99.90;;;;;;5012614;28;20220;-84
2022/04/23 11:23:53;;;;;;;16.52;11.73;;;18.70;99.90;;;;;;5013775;28;20656;-83
2022/04/23 11:26:22;;;;;;;13.50;12.15;;;18.60;99.90;;;;;;5012519;28;20195;-83
2022/04/23 11:28:58;;;;;;;20.48;12.15;;;18.70;99.90;;;;;;5013741;28;20207;-85
2022/04/23 11:31:25;;;;;;;16.48;11.40;;;19.00;99.90;;;;;;5014506;28;20616;-86
2022/04/23 11:34:00;;;;;;;14.65;11.90;;;19.20;99.90;;;;;;5015446;28;20196;-84
2022/04/23 11:36:28;;;;;;;13.50;11.85;;;19.00;99.90;;;;;;5014686;28;20383;-93
2022/04/23 11:38:55;;;;;;;14.00;12.63;;;19.10;99.90;;;;;;5014739;28;20573;-80
2022/04/23 11:41:28;;;;;;;14.40;12.57;;;18.80;99.90;;;;;;5013474;28;20168;-82
2022/04/23 11:43:54;;;;;;;13.18;11.07;;;18.90;99.90;;;;;;5012795;28;20189;-81
2022/04/23 11:46:20;;;;;;;16.52;12.98;;;19.10;99.90;;;;;;5013933;28;20564;-88
2022/04/23 11:48:48;;;;;;;13.77;12.48;;;19.00;99.90;;;;;;5013448;28;20694;-89
2022/04/23 11:51:20;;;;;;;13.50;11.95;;;19.00;99.90;;;;;;5013587;28;20169;-79
2022/04/23 11:53:52;;;;;;;13.35;11.77;;;18.70;99.90;;;;;;5014050;28;20188;-88
2022/04/23 11:56:36;;;;;;;13.30;11.73;;;18.60;99.90;;;;;;5013196;28;20179;-88
2022/04/23 11:59:06;;;;;;;13.35;11.40;;;18.70;99.90;;;;;;5014490;28;20633;-89
2022/04/23 12:01:32;;;;;;;16.27;11.27;;;18.60;99.90;;;;;;5015847;28;20200;-91
2022/04/23 12:03:58;;;;;;;20.05;11.80;;;18.60;99.90;;;;;;5016219;28;20210;-91
2022/04/23 12:06:25;;;;;;;14.50;11.35;;;18.80;99.90;;;;;;5015945;28;20173;-92
2022/04/23 12:09:04;;;;;;;22.23;11.00;;;18.80;99.90;;;;;;5015721;28;20171;-92
2022/04/23 12:11:30;;;;;;;11.70;10.70;;;18.90;99.90;;;;;;5015936;28;20538;-87
2022/04/23 12:13:55;;;;;;;12.88;10.43;;;18.90;99.90;;;;;;5014152;28;20189;-83
2022/04/23 12:16:32;;;;;;;17.25;12.00;;;19.20;99.90;;;;;;5019475;28;20188;-84
2022/04/23 12:19:03;;;;;;;12.63;10.95;;;19.10;99.90;;;;;;5013481;28;20702;-83
2022/04/23 12:21:55;;;;;;;12.18;10.98;;;19.20;99.90;;;;;;5017761;28;20185;-86
2022/04/23 12:24:34;;;;;;;10.50;9.52;;;19.30;99.90;;;;;;5017392;28;20208;-84
2022/04/23 12:27:04;;;;;;;10.27;9.27;;;19.40;99.90;;;;;;5039206;28;20191;-85
2022/04/23 12:40:57;;;;;;;9.90;7.65;;;19.90;99.90;;;;;;5034046;28;20759;-93
2022/04/23 12:43:31;;;;;;;13.73;9.55;;;20.00;99.90;;;;;;5035801;28;20170;-93
2022/04/23 12:46:07;;;;;;;10.15;9.10;;;20.10;99.90;;;;;;5050697;28;20183;-90
2022/04/23 12:48:54;;;;;;;10.45;8.60;;;20.10;99.90;;;;;;5025599;28;20200;-88
2022/04/23 12:51:19;;;;;;;11.15;8.68;;;20.10;99.90;;;;;;5047999;28;20168;-87
2022/04/23 12:53:45;;;;;;;12.13;8.18;;;20.00;99.90;;;;;;5049076;28;20199;-82
2022/04/23 12:56:11;;;;;;;9.88;8.90;;;20.10;99.90;;;;;;5053998;28;20163;-85
2022/04/23 12:58:36;;;;;;;8.88;7.68;;;20.30;99.90;;;;;;5054644;28;20175;-88
2022/04/23 13:01:02;;;;;;;8.50;7.22;;;20.10;99.90;;;;;;5045942;28;20242;-88
2022/04/23 13:03:35;;;;;;;13.35;8.15;;;20.40;99.90;;;;;;5048080;28;20170;-83
2022/04/23 13:06:03;;;;;;;11.48;7.97;;;20.40;99.90;;;;;;5059505;28;20192;-84